Time;durP1;ratioP1;P1;durP2;ratioP2;P2;SDS_P1;SDS_P2;PMS_P1;PMS_P2;Temp;Humidity;BMP_temperature;BMP_pressure;BME280_temperature;BME280_humidity;BME280_pressure;Samples;Min_cycle;Max_cycle;Signal;HPM_P1;HPM_P2
2024/03/21 00:01:58;;;;;;;7.38;5.32;;;21.30;51.90;;;;;;10314985;28;20070;-59
2024/03/21 00:07:04;;;;;;;6.78;5.50;;;21.50;51.30;;;;;;10316963;28;20456;-62
2024/03/21 00:12:06;;;;;;;9.45;5.55;;;21.40;51.60;;;;;;10318639;28;20045;-58
2024/03/21 00:17:08;;;;;;;6.95;5.50;;;21.30;51.80;;;;;;10310745;28;20117;-59
2024/03/21 00:22:11;;;;;;;9.98;5.70;;;21.60;51.00;;;;;;10319162;28;20133;-60
2024/03/21 00:27:12;;;;;;;7.63;5.40;;;21.70;50.50;;;;;;10322518;28;20493;-62
2024/03/21 00:32:14;;;;;;;8.75;5.78;;;21.80;50.20;;;;;;10329628;28;20133;-59
2024/03/21 00:37:17;;;;;;;8.68;5.50;;;21.70;50.30;;;;;;10326963;28;20134;-58
2024/03/21 00:42:18;;;;;;;6.95;5.00;;;22.00;49.90;;;;;;10323830;28;20137;-58
2024/03/21 00:47:20;;;;;;;7.65;5.22;;;22.10;49.30;;;;;;10324086;28;20089;-62
2024/03/21 00:52:23;;;;;;;6.63;5.00;;;21.90;49.70;;;;;;10325150;28;20535;-60
2024/03/21 00:57:27;;;;;;;6.55;4.82;;;21.80;50.00;;;;;;10325079;28;20483;-60
2024/03/21 01:02:29;;;;;;;5.45;4.60;;;21.60;50.40;;;;;;10318392;28;20038;-61
2024/03/21 01:07:32;;;;;;;5.45;4.75;;;21.70;50.10;;;;;;10325786;28;20138;-58
2024/03/21 01:12:33;;;;;;;8.23;5.18;;;21.70;50.20;;;;;;10318228;28;20220;-58
2024/03/21 01:17:36;;;;;;;6.43;5.20;;;21.60;50.30;;;;;;10314511;28;20050;-59
2024/03/21 01:22:39;;;;;;;6.88;4.30;;;21.90;49.60;;;;;;10317076;28;20046;-57
2024/03/21 01:27:40;;;;;;;5.65;4.05;;;21.50;50.30;;;;;;10318236;28;20038;-59
2024/03/21 01:32:42;;;;;;;7.38;4.10;;;21.60;50.30;;;;;;10316350;28;20141;-57
2024/03/21 01:37:46;;;;;;;6.05;4.13;;;21.50;50.40;;;;;;10325244;28;20042;-58
2024/03/21 01:42:50;;;;;;;5.35;3.85;;;21.60;50.00;;;;;;10323033;28;20054;-62
2024/03/21 01:47:52;;;;;;;5.07;3.70;;;21.60;50.10;;;;;;10328502;28;20116;-61
2024/03/21 01:52:54;;;;;;;5.25;3.72;;;21.40;50.20;;;;;;10322420;28;20629;-60
2024/03/21 01:57:56;;;;;;;4.97;4.07;;;21.50;50.20;;;;;;10328943;28;20153;-62
2024/03/21 02:02:58;;;;;;;4.30;3.42;;;21.50;50.30;;;;;;10338296;28;20130;-61
2024/03/21 02:08:01;;;;;;;5.40;4.13;;;21.40;50.40;;;;;;10340501;28;20138;-59
2024/03/21 02:13:02;;;;;;;7.07;4.50;;;21.30;50.60;;;;;;10336383;28;20125;-58
2024/03/21 02:18:04;;;;;;;5.63;4.70;;;21.20;50.90;;;;;;10331734;28;20130;-59
2024/03/21 02:23:10;;;;;;;5.13;4.45;;;21.10;51.00;;;;;;10326955;28;20090;-61
2024/03/21 02:28:12;;;;;;;5.05;4.18;;;21.00;51.30;;;;;;10326985;28;20048;-58
2024/03/21 02:33:13;;;;;;;5.68;4.05;;;20.90;51.60;;;;;;10325382;28;20484;-60
2024/03/21 02:38:16;;;;;;;5.70;4.20;;;21.40;50.30;;;;;;10330767;28;20483;-59
2024/03/21 02:43:18;;;;;;;5.05;3.97;;;21.20;50.90;;;;;;10330799;28;20054;-59
2024/03/21 02:48:19;;;;;;;6.22;3.80;;;21.30;50.70;;;;;;10323313;28;20452;-61
2024/03/21 02:53:22;;;;;;;4.32;3.88;;;20.90;51.30;;;;;;10327540;28;20487;-60
2024/03/21 02:58:24;;;;;;;4.57;3.85;;;21.00;51.30;;;;;;10324199;28;20120;-59
2024/03/21 03:03:25;;;;;;;7.20;4.20;;;20.90;51.50;;;;;;10320645;28;20125;-60
2024/03/21 03:08:28;;;;;;;4.43;3.60;;;20.90;51.40;;;;;;10326826;28;20089;-61
2024/03/21 03:13:30;;;;;;;5.18;3.90;;;20.90;51.60;;;;;;10324526;28;20126;-61
2024/03/21 03:18:31;;;;;;;5.63;3.80;;;20.90;51.30;;;;;;10321119;28;20428;-62
2024/03/21 03:23:34;;;;;;;6.80;4.22;;;20.90;51.30;;;;;;10321934;28;20126;-60
2024/03/21 03:28:36;;;;;;;5.13;4.00;;;20.70;51.90;;;;;;10284653;28;1021069;-60
2024/03/21 03:38:57;;;;;;;4.80;3.50;;;20.80;51.80;;;;;;10325149;28;20781;-59
2024/03/21 03:43:59;;;;;;;4.18;3.55;;;20.70;51.80;;;;;;10364667;28;20146;-57
2024/03/21 03:49:00;;;;;;;4.43;3.70;;;20.80;51.60;;;;;;10369913;28;20053;-60
2024/03/21 03:54:03;;;;;;;4.05;3.60;;;20.70;51.90;;;;;;10369360;28;20121;-57
2024/03/21 03:59:05;;;;;;;4.15;3.72;;;21.10;51.30;;;;;;10372715;28;20132;-59
2024/03/21 04:04:07;;;;;;;3.72;3.35;;;20.70;51.40;;;;;;10368785;28;20046;-59
2024/03/21 04:09:09;;;;;;;4.00;3.08;;;20.40;52.90;;;;;;10322268;28;20133;-58
2024/03/21 04:14:11;;;;;;;4.53;3.15;;;20.40;53.00;;;;;;10319749;28;20502;-58
2024/03/21 04:19:13;;;;;;;5.25;3.20;;;20.50;52.80;;;;;;10312941;28;20078;-60
2024/03/21 04:24:16;;;;;;;3.15;2.83;;;20.60;52.70;;;;;;10319500;28;20130;-57
2024/03/21 04:29:18;;;;;;;3.20;2.90;;;20.70;52.50;;;;;;10364790;28;20061;-59
2024/03/21 04:34:20;;;;;;;2.90;2.55;;;20.90;52.10;;;;;;10361418;28;20141;-59
2024/03/21 04:39:23;;;;;;;3.33;2.47;;;21.70;50.40;;;;;;10368498;28;20049;-60
2024/03/21 04:44:24;;;;;;;2.40;2.20;;;22.10;49.10;;;;;;10364868;28;20129;-57
2024/03/21 04:49:26;;;;;;;2.10;1.90;;;22.20;48.70;;;;;;10370764;28;20130;-59
2024/03/21 04:54:29;;;;;;;3.10;2.10;;;22.20;48.60;;;;;;10356147;28;20133;-62
2024/03/21 04:59:30;;;;;;;2.35;2.15;;;22.00;49.10;;;;;;10322517;28;20133;-59
2024/03/21 05:04:32;;;;;;;3.17;2.10;;;22.00;49.30;;;;;;10320018;28;20038;-58
2024/03/21 05:09:35;;;;;;;2.67;1.70;;;22.00;49.40;;;;;;10365675;28;20141;-61
2024/03/21 05:14:37;;;;;;;2.42;1.90;;;22.30;48.60;;;;;;10364443;28;20100;-57
2024/03/21 05:19:38;;;;;;;1.85;1.52;;;22.30;48.60;;;;;;10360476;28;20149;-59
2024/03/21 05:24:42;;;;;;;1.70;1.60;;;22.40;48.30;;;;;;10366467;28;20141;-58
2024/03/21 05:29:43;;;;;;;1.60;1.40;;;22.40;48.30;;;;;;10369294;28;20132;-58
2024/03/21 05:34:45;;;;;;;2.20;1.65;;;22.40;48.40;;;;;;10365221;28;20069;-59
2024/03/21 05:39:48;;;;;;;1.70;1.30;;;22.40;48.20;;;;;;10369169;28;20137;-56
2024/03/21 05:44:50;;;;;;;1.73;1.48;;;22.50;48.00;;;;;;10367387;28;20140;-60
2024/03/21 05:49:51;;;;;;;1.33;1.23;;;22.50;48.10;;;;;;10366334;28;20141;-60
2024/03/21 05:54:54;;;;;;;1.27;1.17;;;22.50;48.20;;;;;;10366772;28;20093;-59
2024/03/21 05:59:56;;;;;;;1.75;1.30;;;22.70;48.30;;;;;;10361495;28;20128;-58
2024/03/21 06:04:57;;;;;;;1.40;1.30;;;22.70;48.40;;;;;;10355156;28;20145;-58
2024/03/21 06:10:00;;;;;;;2.42;1.70;;;22.70;49.00;;;;;;10345309;28;20124;-59
2024/03/21 06:15:02;;;;;;;2.08;1.50;;;22.70;48.80;;;;;;10352416;28;20057;-58
2024/03/21 06:20:06;;;;;;;3.15;1.52;;;22.80;48.90;;;;;;10358322;28;20133;-56
2024/03/21 06:25:09;;;;;;;3.50;1.70;;;22.80;48.90;;;;;;10320040;28;20043;-58
2024/03/21 06:30:12;;;;;;;5.18;1.55;;;22.70;49.00;;;;;;10325259;28;20133;-59
2024/03/21 06:35:13;;;;;;;3.03;1.35;;;22.70;48.90;;;;;;10324718;28;20479;-59
2024/03/21 06:40:16;;;;;;;5.28;1.50;;;22.50;49.60;;;;;;10319872;28;20495;-59
2024/03/21 06:45:18;;;;;;;6.60;1.75;;;22.50;49.70;;;;;;10324144;28;20137;-59
2024/03/21 06:50:20;;;;;;;12.55;3.38;;;22.60;50.20;;;;;;10326936;28;20074;-58
2024/03/21 06:55:23;;;;;;;15.60;3.85;;;22.60;50.50;;;;;;10326492;28;20042;-60
2024/03/21 07:00:26;;;;;;;13.02;3.42;;;22.50;50.30;;;;;;10320239;28;20080;-58
2024/03/21 07:05:28;;;;;;;13.07;3.15;;;22.20;50.00;;;;;;10330317;28;20053;-59
2024/03/21 07:10:30;;;;;;;18.10;2.90;;;22.20;50.20;;;;;;10326889;28;20046;-58
2024/03/21 07:15:32;;;;;;;15.75;2.90;;;22.20;50.30;;;;;;10321083;28;20046;-59
2024/03/21 07:20:34;;;;;;;8.88;3.00;;;22.10;50.50;;;;;;10325313;28;20050;-57
2024/03/21 07:25:37;;;;;;;9.88;2.70;;;22.10;49.60;;;;;;10319977;28;20070;-58
2024/03/21 07:30:38;;;;;;;9.20;2.70;;;21.90;49.80;;;;;;10339073;28;20504;-59
2024/03/21 07:35:40;;;;;;;8.15;2.50;;;22.00;49.70;;;;;;10363100;28;20077;-59
2024/03/21 07:40:43;;;;;;;6.03;2.30;;;21.90;49.70;;;;;;10355794;28;20046;-58
2024/03/21 07:45:45;;;;;;;4.78;2.30;;;21.70;50.20;;;;;;10325266;28;20053;-58
2024/03/21 07:50:46;;;;;;;5.70;2.20;;;21.70;49.60;;;;;;10332075;28;20042;-58
2024/03/21 07:55:49;;;;;;;5.40;2.00;;;21.60;49.60;;;;;;10328907;28;20050;-58
2024/03/21 08:00:51;;;;;;;5.65;1.90;;;21.40;50.00;;;;;;10324985;28;20051;-59
2024/03/21 08:05:54;;;;;;;5.93;1.85;;;21.40;49.60;;;;;;10328938;28;20068;-57
2024/03/21 08:10:57;;;;;;;6.10;2.17;;;21.30;49.40;;;;;;10333846;28;20048;-57
2024/03/21 08:15:58;;;;;;;4.75;2.00;;;21.20;49.80;;;;;;10356125;28;20050;-59
2024/03/21 08:21:00;;;;;;;4.68;2.10;;;21.00;49.60;;;;;;10322718;28;20453;-55
2024/03/21 08:26:04;;;;;;;3.20;1.65;;;21.10;49.40;;;;;;10319014;28;20496;-56
2024/03/21 08:31:06;;;;;;;5.03;2.05;;;21.30;49.00;;;;;;10329244;28;20498;-58
2024/03/21 08:36:08;;;;;;;4.57;2.00;;;21.30;49.00;;;;;;10337865;28;20132;-57
2024/03/21 08:41:10;;;;;;;5.63;2.15;;;21.30;48.90;;;;;;10370705;28;20478;-58
2024/03/21 08:46:12;;;;;;;3.90;1.90;;;21.40;48.90;;;;;;10368985;28;20413;-58
2024/03/21 08:51:14;;;;;;;4.15;1.70;;;21.40;48.80;;;;;;10370190;28;20128;-56
2024/03/21 08:56:17;;;;;;;3.28;1.67;;;21.40;49.00;;;;;;10354529;28;20128;-59
2024/03/21 09:01:18;;;;;;;4.97;1.80;;;21.50;48.90;;;;;;10354356;28;20133;-57
2024/03/21 09:06:20;;;;;;;3.53;1.85;;;21.50;49.00;;;;;;10328424;28;20052;-58
2024/03/21 09:11:23;;;;;;;3.72;1.55;;;21.50;49.10;;;;;;10341555;28;20141;-56
2024/03/21 09:16:24;;;;;;;4.03;1.73;;;21.60;48.90;;;;;;10364422;28;20124;-58
2024/03/21 09:21:27;;;;;;;3.13;1.48;;;21.70;48.90;;;;;;10366420;28;20045;-59
2024/03/21 09:26:30;;;;;;;2.63;1.65;;;21.60;49.10;;;;;;10349825;28;20050;-57
2024/03/21 09:31:32;;;;;;;3.33;2.00;;;21.70;49.00;;;;;;10325462;28;20138;-58
2024/03/21 09:36:35;;;;;;;2.60;1.90;;;21.70;49.20;;;;;;10325929;28;20456;-56
2024/03/21 09:41:38;;;;;;;2.83;1.90;;;21.70;49.20;;;;;;10322422;28;20072;-55
2024/03/21 09:46:39;;;;;;;2.05;1.52;;;21.70;49.30;;;;;;10333984;28;20050;-59
2024/03/21 09:51:44;;;;;;;2.05;1.80;;;21.80;49.20;;;;;;10344748;28;20487;-59
2024/03/21 09:56:47;;;;;;;2.13;1.70;;;21.80;49.30;;;;;;10341724;28;20072;-56
2024/03/21 10:01:49;;;;;;;1.77;1.60;;;21.70;49.60;;;;;;10325728;28;20566;-58
2024/03/21 10:06:51;;;;;;;1.60;1.50;;;21.70;49.40;;;;;;10328595;28;20046;-59
2024/03/21 10:11:54;;;;;;;2.15;1.60;;;21.70;49.50;;;;;;10331598;28;20078;-59
2024/03/21 10:16:56;;;;;;;1.38;1.25;;;21.70;49.50;;;;;;10337789;28;20530;-58
2024/03/21 10:21:58;;;;;;;1.45;1.30;;;21.80;49.50;;;;;;10336788;28;20455;-58
2024/03/21 10:27:01;;;;;;;1.55;1.23;;;21.80;49.50;;;;;;10343406;28;20050;-57
2024/03/21 10:32:03;;;;;;;1.30;1.02;;;21.90;49.20;;;;;;10331264;28;20108;-57
2024/03/21 10:37:04;;;;;;;1.83;0.90;;;21.70;49.60;;;;;;10342558;28;20101;-58
2024/03/21 10:42:07;;;;;;;2.60;1.10;;;21.80;49.30;;;;;;10331990;28;20108;-57
2024/03/21 10:47:10;;;;;;;1.48;1.20;;;21.70;49.50;;;;;;10327910;28;20101;-55
2024/03/21 10:52:14;;;;;;;1.83;1.30;;;21.70;49.10;;;;;;10332433;28;20049;-60
2024/03/21 10:57:17;;;;;;;2.45;1.48;;;21.60;49.30;;;;;;10355332;28;20467;-59
2024/03/21 11:02:19;;;;;;;1.35;1.15;;;21.60;49.30;;;;;;10341867;28;20116;-57
2024/03/21 11:07:21;;;;;;;2.00;1.40;;;21.50;49.20;;;;;;10322105;28;20055;-55
2024/03/21 11:12:24;;;;;;;1.30;1.20;;;21.40;49.50;;;;;;10353965;28;20034;-57
2024/03/21 11:17:26;;;;;;;1.75;1.48;;;21.40;49.30;;;;;;10349589;28;20052;-58
2024/03/21 11:22:27;;;;;;;1.60;1.50;;;21.20;49.50;;;;;;10343820;28;20042;-58
2024/03/21 11:27:30;;;;;;;1.65;1.55;;;21.10;49.70;;;;;;10373065;28;20516;-57
2024/03/21 11:32:32;;;;;;;1.50;1.30;;;21.20;49.80;;;;;;10370997;28;20128;-59
2024/03/21 11:37:34;;;;;;;1.50;1.40;;;21.10;49.80;;;;;;10373869;28;20128;-57
2024/03/21 11:42:36;;;;;;;2.40;1.65;;;21.00;49.70;;;;;;10367843;28;20045;-57
2024/03/21 11:47:38;;;;;;;4.13;1.60;;;21.00;49.80;;;;;;10372485;28;20500;-56
2024/03/21 11:52:40;;;;;;;1.60;1.50;;;20.90;49.90;;;;;;10363167;28;20157;-57
2024/03/21 11:57:43;;;;;;;1.40;1.23;;;20.90;50.30;;;;;;10366802;28;20138;-58
2024/03/21 12:02:44;;;;;;;1.92;1.50;;;20.90;50.00;;;;;;10370445;28;20145;-58
2024/03/21 12:07:46;;;;;;;3.03;1.55;;;21.00;49.80;;;;;;10367063;28;20050;-56
2024/03/21 12:12:49;;;;;;;1.40;1.30;;;21.10;49.50;;;;;;10371008;28;20129;-56
2024/03/21 12:17:51;;;;;;;1.58;1.30;;;21.30;49.20;;;;;;10369185;28;20496;-58
2024/03/21 12:22:52;;;;;;;2.38;1.42;;;21.30;49.60;;;;;;10365659;28;20192;-57
2024/03/21 12:27:56;;;;;;;5.53;2.78;;;21.40;49.20;;;;;;10366152;28;20132;-55
2024/03/21 12:32:57;;;;;;;5.85;2.20;;;21.50;49.00;;;;;;10370349;28;20038;-57
2024/03/21 12:37:59;;;;;;;4.10;2.10;;;21.60;48.90;;;;;;10338736;28;20429;-57
2024/03/21 12:43:04;;;;;;;5.40;2.40;;;21.60;49.50;;;;;;10324167;28;20113;-57
2024/03/21 12:48:06;;;;;;;5.22;2.13;;;21.60;48.80;;;;;;10318132;28;20050;-58
2024/03/21 12:53:08;;;;;;;5.63;2.25;;;21.70;48.50;;;;;;10325019;28;20041;-58
2024/03/21 12:58:11;;;;;;;4.50;2.28;;;21.60;48.70;;;;;;10350326;28;20487;-58
2024/03/21 13:03:12;;;;;;;2.38;1.88;;;21.70;48.60;;;;;;10368487;28;20124;-56
2024/03/21 13:08:14;;;;;;;3.75;2.20;;;21.70;48.40;;;;;;10368254;28;20132;-55
2024/03/21 13:13:17;;;;;;;3.47;1.90;;;21.70;48.50;;;;;;10339674;28;20042;-56
2024/03/21 13:18:26;;;;;;;3.53;1.75;;;21.80;48.30;;;;;;10324577;28;20038;-57
2024/03/21 13:23:27;;;;;;;2.40;1.60;;;21.80;48.50;;;;;;10321705;28;20125;-58
2024/03/21 13:28:30;;;;;;;2.90;1.70;;;21.80;48.30;;;;;;10320747;28;20134;-55
2024/03/21 13:33:32;;;;;;;4.35;1.92;;;21.70;48.80;;;;;;10310091;28;20121;-59
2024/03/21 13:38:33;;;;;;;3.33;1.50;;;21.90;48.20;;;;;;10326467;28;20042;-59
2024/03/21 13:43:36;;;;;;;4.80;1.75;;;21.80;48.40;;;;;;10322382;28;20133;-57
2024/03/21 13:48:38;;;;;;;2.38;1.85;;;21.80;48.50;;;;;;10321403;28;20257;-58
2024/03/21 13:53:43;;;;;;;2.97;1.75;;;22.00;48.00;;;;;;10316983;28;20155;-57
2024/03/21 13:58:46;;;;;;;3.25;1.77;;;22.50;47.30;;;;;;10333172;28;20134;-57
2024/03/21 14:03:49;;;;;;;3.08;1.65;;;22.70;46.90;;;;;;10333368;28;20073;-58
2024/03/21 14:08:51;;;;;;;2.47;1.67;;;22.60;46.90;;;;;;10333665;28;20132;-58
2024/03/21 14:13:54;;;;;;;2.80;1.60;;;22.50;47.20;;;;;;10336003;28;20465;-58
2024/03/21 14:18:57;;;;;;;3.65;1.70;;;22.40;47.30;;;;;;10333588;28;20483;-57
2024/03/21 14:23:59;;;;;;;2.83;1.85;;;22.40;47.10;;;;;;10366698;28;20044;-57
2024/03/21 14:29:02;;;;;;;2.85;1.70;;;22.30;47.20;;;;;;10372042;28;20570;-53
2024/03/21 14:34:06;;;;;;;4.30;1.95;;;22.10;47.50;;;;;;10333670;28;20057;-56
2024/03/21 14:39:10;;;;;;;4.03;2.05;;;22.10;47.40;;;;;;10326230;28;20046;-57
2024/03/21 14:44:13;;;;;;;8.90;2.45;;;22.10;47.60;;;;;;10345585;28;20500;-56
2024/03/21 14:49:15;;;;;;;12.15;2.70;;;22.20;48.20;;;;;;10320634;28;20153;-57
2024/03/21 14:54:17;;;;;;;6.65;2.63;;;22.30;47.80;;;;;;10341715;28;20042;-52
2024/03/21 14:59:20;;;;;;;10.90;2.90;;;22.60;47.50;;;;;;10348203;28;20042;-54
2024/03/21 15:04:21;;;;;;;8.98;2.58;;;22.40;47.60;;;;;;10335478;28;20553;-55
2024/03/21 15:09:23;;;;;;;7.68;2.92;;;22.30;47.00;;;;;;10336446;28;20522;-55
2024/03/21 15:14:26;;;;;;;7.68;2.58;;;22.30;47.20;;;;;;10331714;28;20117;-55
2024/03/21 15:19:28;;;;;;;4.72;2.78;;;22.40;47.00;;;;;;10334771;28;20126;-56
2024/03/21 15:24:29;;;;;;;6.63;2.60;;;22.60;46.50;;;;;;10339818;28;20070;-55
2024/03/21 15:29:32;;;;;;;11.23;2.88;;;22.80;46.20;;;;;;10343090;28;20128;-54
2024/03/21 15:34:34;;;;;;;5.30;2.30;;;22.70;46.40;;;;;;10335818;28;20057;-56
2024/03/21 15:39:35;;;;;;;7.30;2.55;;;22.70;46.10;;;;;;10332459;28;20129;-56
2024/03/21 15:44:38;;;;;;;6.32;2.28;;;22.60;46.60;;;;;;10329783;28;20046;-58
2024/03/21 15:49:40;;;;;;;5.30;1.77;;;22.50;46.10;;;;;;10373342;28;20138;-56
2024/03/21 15:54:42;;;;;;;7.50;2.00;;;22.70;45.60;;;;;;10371798;28;20125;-57
2024/03/21 15:59:45;;;;;;;9.98;2.03;;;22.70;45.70;;;;;;10329856;28;20054;-56
2024/03/21 16:04:46;;;;;;;4.35;2.10;;;22.70;45.60;;;;;;10332446;28;20061;-56
2024/03/21 16:09:48;;;;;;;2.63;1.58;;;22.60;46.10;;;;;;10332068;28;20137;-57
2024/03/21 16:14:51;;;;;;;6.40;1.73;;;22.70;45.40;;;;;;10328887;28;20137;-58
2024/03/21 16:19:52;;;;;;;7.35;2.00;;;22.80;45.60;;;;;;10316448;28;20042;-57
2024/03/21 16:24:54;;;;;;;3.72;2.03;;;23.00;45.30;;;;;;10335576;28;20052;-56
2024/03/21 16:29:57;;;;;;;4.40;1.80;;;22.90;45.30;;;;;;10331953;28;24770;-58
2024/03/21 16:34:59;;;;;;;4.55;1.77;;;22.90;45.40;;;;;;10344269;28;20142;-56
2024/03/21 16:40:00;;;;;;;8.35;2.00;;;22.80;45.90;;;;;;10324614;28;20131;-58
2024/03/21 16:45:04;;;;;;;16.67;2.58;;;22.90;46.50;;;;;;10331385;28;20046;-58
2024/03/21 16:50:07;;;;;;;11.13;2.33;;;23.00;47.00;;;;;;10325185;28;20133;-57
2024/03/21 16:55:13;;;;;;;12.07;2.28;;;23.00;48.00;;;;;;10330082;28;20133;-55
2024/03/21 17:00:16;;;;;;;12.48;2.42;;;23.00;48.90;;;;;;10329488;28;20543;-55
2024/03/21 17:05:18;;;;;;;14.10;2.67;;;23.10;49.80;;;;;;10323582;28;20060;-57
2024/03/21 17:10:19;;;;;;;15.13;2.88;;;23.10;50.30;;;;;;10331903;28;20572;-55
2024/03/21 17:15:22;;;;;;;17.08;2.78;;;23.20;51.80;;;;;;10325648;28;20054;-57
2024/03/21 17:20:24;;;;;;;12.02;3.63;;;23.20;52.90;;;;;;10316622;28;20126;-53
2024/03/21 17:25:25;;;;;;;20.63;4.80;;;23.20;53.00;;;;;;10311918;28;20125;-57
2024/03/21 17:30:29;;;;;;;14.05;2.67;;;23.30;52.40;;;;;;10318673;28;20053;-56
2024/03/21 17:35:30;;;;;;;12.80;2.47;;;23.40;52.10;;;;;;10320057;28;20057;-56
2024/03/21 17:40:36;;;;;;;9.38;2.55;;;23.60;51.80;;;;;;10321089;28;20126;-57
2024/03/21 17:45:39;;;;;;;11.23;2.78;;;23.60;51.90;;;;;;10314878;28;20053;-52
2024/03/21 17:50:41;;;;;;;9.07;2.20;;;23.70;51.60;;;;;;10320132;28;20057;-57
2024/03/21 17:55:43;;;;;;;6.68;2.60;;;23.70;50.30;;;;;;10316299;28;20058;-52
2024/03/21 18:00:46;;;;;;;9.20;2.22;;;23.80;50.00;;;;;;10317815;28;20057;-55
2024/03/21 18:05:51;;;;;;;13.98;2.72;;;23.80;49.50;;;;;;10316723;28;20046;-53
2024/03/21 18:10:52;;;;;;;13.80;2.88;;;23.70;49.80;;;;;;10315534;28;20108;-54
2024/03/21 18:15:55;;;;;;;10.88;2.33;;;23.60;51.10;;;;;;10318496;28;20501;-56
2024/03/21 18:20:57;;;;;;;15.50;2.55;;;23.60;51.60;;;;;;10323084;28;20069;-56
2024/03/21 18:25:59;;;;;;;10.57;2.80;;;23.70;51.70;;;;;;10312264;28;20419;-60
2024/03/21 18:31:02;;;;;;;10.82;2.20;;;23.90;49.30;;;;;;10305071;28;20082;-61
2024/03/21 18:36:04;;;;;;;6.88;2.05;;;23.80;49.60;;;;;;10314259;28;20060;-60
2024/03/21 18:41:06;;;;;;;6.95;1.98;;;23.80;50.30;;;;;;10307380;28;20047;-60
2024/03/21 18:46:09;;;;;;;9.82;2.20;;;23.90;50.30;;;;;;10318024;28;20141;-60
2024/03/21 18:51:10;;;;;;;12.77;2.40;;;24.00;50.30;;;;;;10323782;28;20066;-59
2024/03/21 18:56:13;;;;;;;5.97;2.63;;;24.10;49.80;;;;;;10341806;28;20060;-60
2024/03/21 19:01:16;;;;;;;9.25;2.42;;;24.10;49.50;;;;;;10360582;28;20058;-60
2024/03/21 19:06:18;;;;;;;7.78;2.35;;;24.10;49.50;;;;;;10327592;28;20080;-60
2024/03/21 19:11:19;;;;;;;10.30;2.78;;;24.10;49.40;;;;;;10327672;28;20468;-60
2024/03/21 19:16:22;;;;;;;9.98;2.53;;;24.20;49.30;;;;;;10323983;28;20138;-61
2024/03/21 19:21:24;;;;;;;5.80;2.03;;;24.30;48.70;;;;;;10325066;28;20058;-62
2024/03/21 19:26:26;;;;;;;5.90;2.45;;;24.40;48.70;;;;;;10324987;28;20047;-60
2024/03/21 19:31:31;;;;;;;7.78;2.60;;;24.40;47.00;;;;;;10322885;28;20137;-62
2024/03/21 19:36:33;;;;;;;9.80;2.60;;;24.30;47.00;;;;;;10338365;28;20050;-62
2024/03/21 19:41:35;;;;;;;8.27;2.30;;;24.10;47.20;;;;;;10361953;28;20104;-62
2024/03/21 19:46:38;;;;;;;6.93;1.88;;;24.10;47.30;;;;;;10366330;28;20061;-63
2024/03/21 19:51:39;;;;;;;7.50;2.95;;;23.70;47.70;;;;;;10338220;28;20133;-60
2024/03/21 19:56:41;;;;;;;8.80;2.80;;;23.70;48.00;;;;;;10321183;28;20733;-62
2024/03/21 20:01:45;;;;;;;15.73;4.88;;;23.50;47.60;;;;;;10323120;28;20084;-59
2024/03/21 20:06:47;;;;;;;14.32;4.38;;;23.20;47.30;;;;;;10321633;28;20065;-61
2024/03/21 20:11:48;;;;;;;13.40;4.72;;;22.90;47.40;;;;;;10324026;28;20053;-59
2024/03/21 20:16:51;;;;;;;17.52;5.30;;;22.80;48.30;;;;;;10320567;28;20163;-59
2024/03/21 20:21:53;;;;;;;15.98;5.50;;;22.60;49.40;;;;;;10335391;28;20140;-61
2024/03/21 20:26:55;;;;;;;19.88;6.38;;;22.40;49.90;;;;;;10356646;28;20050;-59
2024/03/21 20:31:58;;;;;;;19.13;5.70;;;22.30;50.30;;;;;;10348192;28;20579;-60
2024/03/21 20:36:59;;;;;;;23.80;6.18;;;22.50;50.00;;;;;;10353093;28;20149;-60
2024/03/21 20:42:01;;;;;;;18.25;5.60;;;22.70;50.10;;;;;;10336274;28;20053;-59
2024/03/21 20:47:04;;;;;;;18.70;5.75;;;22.50;50.10;;;;;;10317710;28;20055;-61
2024/03/21 20:52:06;;;;;;;19.80;6.05;;;22.30;50.80;;;;;;10339235;28;20054;-60
2024/03/21 20:57:12;;;;;;;24.10;5.93;;;22.60;50.30;;;;;;10339251;28;20081;-60
2024/03/21 21:02:15;;;;;;;13.60;5.13;;;22.50;50.40;;;;;;10320050;28;20525;-61
2024/03/21 21:07:16;;;;;;;16.27;5.53;;;22.40;50.40;;;;;;10320280;28;20192;-61
2024/03/21 21:12:18;;;;;;;16.75;5.55;;;22.30;51.00;;;;;;10311456;28;20234;-61
2024/03/21 21:17:21;;;;;;;14.98;5.35;;;22.40;50.20;;;;;;10317090;28;20128;-60
2024/03/21 21:22:23;;;;;;;16.63;5.53;;;22.80;49.30;;;;;;10318705;28;20078;-55
2024/03/21 21:27:29;;;;;;;20.67;5.07;;;22.70;49.70;;;;;;10320425;28;20055;-55
2024/03/21 21:32:32;;;;;;;13.23;5.50;;;22.50;50.20;;;;;;10319508;28;20046;-57
2024/03/21 21:37:33;;;;;;;19.45;5.32;;;22.90;49.70;;;;;;10315902;28;20133;-58
2024/03/21 21:42:35;;;;;;;13.13;4.97;;;22.50;50.40;;;;;;10308625;28;20052;-57
2024/03/21 21:47:38;;;;;;;14.73;5.20;;;22.20;50.90;;;;;;10329589;28;20052;-58
2024/03/21 21:52:39;;;;;;;16.75;5.18;;;22.40;50.70;;;;;;10350515;28;20137;-57
2024/03/21 21:57:41;;;;;;;14.18;5.07;;;22.40;50.50;;;;;;10360695;28;20132;-57
2024/03/21 22:02:44;;;;;;;18.33;5.00;;;22.40;50.80;;;;;;10368109;28;20603;-58
2024/03/21 22:07:46;;;;;;;12.52;4.82;;;22.40;50.90;;;;;;10367094;28;20137;-59
2024/03/21 22:12:48;;;;;;;14.13;4.80;;;22.50;50.40;;;;;;10363388;28;20128;-58
2024/03/21 22:17:51;;;;;;;13.15;4.50;;;22.40;50.40;;;;;;10362714;28;20137;-60
2024/03/21 22:22:53;;;;;;;11.15;4.20;;;22.50;50.00;;;;;;10365979;28;20137;-58
2024/03/21 22:27:54;;;;;;;12.30;4.53;;;22.80;49.30;;;;;;10371144;28;20148;-59
2024/03/21 22:32:57;;;;;;;12.32;4.72;;;22.80;48.90;;;;;;10369992;28;20149;-60
2024/03/21 22:37:59;;;;;;;12.35;4.28;;;22.90;48.70;;;;;;10371558;28;20133;-61
2024/03/21 22:43:01;;;;;;;12.25;4.40;;;22.70;49.20;;;;;;10370537;28;20133;-57
2024/03/21 22:48:04;;;;;;;12.48;4.45;;;22.00;51.50;;;;;;10340286;28;20129;-60
2024/03/21 22:53:06;;;;;;;8.65;3.95;;;21.90;52.80;;;;;;10322349;28;20129;-59
2024/03/21 22:58:07;;;;;;;9.45;3.83;;;21.90;53.30;;;;;;10315438;28;20073;-59
2024/03/21 23:03:10;;;;;;;9.88;4.05;;;21.60;54.00;;;;;;10326518;28;20133;-59
2024/03/21 23:08:12;;;;;;;10.23;3.88;;;21.70;54.00;;;;;;10320229;28;20725;-60
2024/03/21 23:13:14;;;;;;;16.75;3.67;;;21.90;54.20;;;;;;10324996;28;20046;-60
2024/03/21 23:18:17;;;;;;;8.02;3.72;;;22.00;53.60;;;;;;10327688;28;20133;-59
2024/03/21 23:23:19;;;;;;;10.52;4.30;;;22.30;52.60;;;;;;10331237;28;20053;-59
2024/03/21 23:28:20;;;;;;;10.45;4.25;;;22.60;51.20;;;;;;10327186;28;20045;-59
2024/03/21 23:33:24;;;;;;;9.50;3.65;;;22.80;50.50;;;;;;10321861;28;20130;-60
2024/03/21 23:38:25;;;;;;;9.02;4.00;;;22.60;50.70;;;;;;10324036;28;20623;-60
2024/03/21 23:43:27;;;;;;;14.13;3.70;;;22.50;50.60;;;;;;10319126;28;20318;-56
2024/03/21 23:48:30;;;;;;;8.57;3.88;;;22.40;50.70;;;;;;10324194;28;20141;-60
2024/03/21 23:53:37;;;;;;;9.27;3.40;;;22.40;50.60;;;;;;10326913;28;20105;-60
2024/03/21 23:58:38;;;;;;;8.40;3.72;;;22.50;50.20;;;;;;10325139;28;20576;-58
